<?xml version="1.0" encoding="UTF-8" standalone="no" ?>
<gpx xmlns="http://www.topografix.com/GPX/1/1" xmlns:xsi="http://www.w3.org/2001/XMLSchema-instance" xsi:schemaLocation="http://www.topografix.com/GPX/1/1 http://www.topografix.com/GPX/1/1/gpx.xsd" version="1.1" creator="VisuGPX - https://www.visugpx.com">
  <metadata>
    <name>Randonnée du 21/06/2025 à 08:43</name>
  </metadata>
  <wpt lat="47.60577" lon="-2.79304">
    <ele>3</ele>
    <name><![CDATA[Point de passage 1]]></name>
    <type><![CDATA[GENERIC]]></type>
  </wpt>
  <wpt lat="47.57933" lon="-2.81183">
    <ele>9</ele>
    <name><![CDATA[Point de passage 2]]></name>
    <type><![CDATA[GENERIC]]></type>
  </wpt>
  <trk>
    <name><![CDATA[Randonnée du 21/06/2025 à 08:43]]></name>
    <trkseg>
      <trkpt lat="47.60577" lon="-2.79304">
        <ele>3</ele>
        <time>2025-06-21T06:44:02.000Z</time>
      </trkpt>
      <trkpt lat="47.60548" lon="-2.79347">
        <ele>3</ele>
        <time>2025-06-21T06:44:49.000Z</time>
      </trkpt>
      <trkpt lat="47.60555" lon="-2.79411">
        <ele>4</ele>
        <time>2025-06-21T06:45:49.000Z</time>
      </trkpt>
      <trkpt lat="47.60513" lon="-2.79497">
        <ele>6</ele>
        <time>2025-06-21T06:47:31.000Z</time>
      </trkpt>
      <trkpt lat="47.60456" lon="-2.7957">
        <ele>5</ele>
        <time>2025-06-21T06:48:58.000Z</time>
      </trkpt>
      <trkpt lat="47.60421" lon="-2.79598">
        <ele>4</ele>
        <time>2025-06-21T06:49:43.000Z</time>
      </trkpt>
      <trkpt lat="47.60262" lon="-2.7953">
        <ele>2</ele>
        <time>2025-06-21T06:52:52.000Z</time>
      </trkpt>
      <trkpt lat="47.60134" lon="-2.795">
        <ele>3</ele>
        <time>2025-06-21T06:55:31.000Z</time>
      </trkpt>
      <trkpt lat="47.60041" lon="-2.79503">
        <ele>3</ele>
        <time>2025-06-21T06:57:18.000Z</time>
      </trkpt>
      <trkpt lat="47.59959" lon="-2.79518">
        <ele>3</ele>
        <time>2025-06-21T06:58:53.000Z</time>
      </trkpt>
      <trkpt lat="47.59866" lon="-2.79561">
        <ele>3</ele>
        <time>2025-06-21T07:00:44.000Z</time>
      </trkpt>
      <trkpt lat="47.59788" lon="-2.79638">
        <ele>4</ele>
        <time>2025-06-21T07:02:42.000Z</time>
      </trkpt>
      <trkpt lat="47.59742" lon="-2.79686">
        <ele>4</ele>
        <time>2025-06-21T07:03:46.000Z</time>
      </trkpt>
      <trkpt lat="47.59713" lon="-2.79711">
        <ele>5</ele>
        <time>2025-06-21T07:04:34.000Z</time>
      </trkpt>
      <trkpt lat="47.59656" lon="-2.79723">
        <ele>5</ele>
        <time>2025-06-21T07:05:41.000Z</time>
      </trkpt>
      <trkpt lat="47.59546" lon="-2.79726">
        <ele>5</ele>
        <time>2025-06-21T07:07:46.000Z</time>
      </trkpt>
      <trkpt lat="47.59409" lon="-2.79791">
        <ele>6</ele>
        <time>2025-06-21T07:10:41.000Z</time>
      </trkpt>
      <trkpt lat="47.59331" lon="-2.79846">
        <ele>6</ele>
        <time>2025-06-21T07:12:20.000Z</time>
      </trkpt>
      <trkpt lat="47.59254" lon="-2.79934">
        <ele>6</ele>
        <time>2025-06-21T07:14:11.000Z</time>
      </trkpt>
      <trkpt lat="47.59112" lon="-2.80081">
        <ele>8</ele>
        <time>2025-06-21T07:17:50.000Z</time>
      </trkpt>
      <trkpt lat="47.59014" lon="-2.80139">
        <ele>14</ele>
        <time>2025-06-21T07:20:52.000Z</time>
      </trkpt>
      <trkpt lat="47.5901" lon="-2.80224">
        <ele>18</ele>
        <time>2025-06-21T07:22:39.000Z</time>
      </trkpt>
      <trkpt lat="47.59029" lon="-2.8031">
        <ele>16</ele>
        <time>2025-06-21T07:23:48.000Z</time>
      </trkpt>
      <trkpt lat="47.59019" lon="-2.8038">
        <ele>15</ele>
        <time>2025-06-21T07:24:44.000Z</time>
      </trkpt>
      <trkpt lat="47.59021" lon="-2.80444">
        <ele>14</ele>
        <time>2025-06-21T07:25:34.000Z</time>
      </trkpt>
      <trkpt lat="47.59" lon="-2.80524">
        <ele>14</ele>
        <time>2025-06-21T07:26:40.000Z</time>
      </trkpt>
      <trkpt lat="47.58903" lon="-2.80478">
        <ele>9</ele>
        <time>2025-06-21T07:28:36.000Z</time>
      </trkpt>
      <trkpt lat="47.58833" lon="-2.80502">
        <ele>4</ele>
        <time>2025-06-21T07:29:59.000Z</time>
      </trkpt>
      <trkpt lat="47.58794" lon="-2.80533">
        <ele>3</ele>
        <time>2025-06-21T07:30:50.000Z</time>
      </trkpt>
      <trkpt lat="47.5868" lon="-2.80664">
        <ele>2</ele>
        <time>2025-06-21T07:33:35.000Z</time>
      </trkpt>
      <trkpt lat="47.58551" lon="-2.80658">
        <ele>4</ele>
        <time>2025-06-21T07:36:24.000Z</time>
      </trkpt>
      <trkpt lat="47.58484" lon="-2.8067">
        <ele>9</ele>
        <time>2025-06-21T07:38:32.000Z</time>
      </trkpt>
      <trkpt lat="47.58429" lon="-2.80722">
        <ele>10</ele>
        <time>2025-06-21T07:39:58.000Z</time>
      </trkpt>
      <trkpt lat="47.58334" lon="-2.80796">
        <ele>6</ele>
        <time>2025-06-21T07:42:01.000Z</time>
      </trkpt>
      <trkpt lat="47.58245" lon="-2.80848">
        <ele>6</ele>
        <time>2025-06-21T07:43:50.000Z</time>
      </trkpt>
      <trkpt lat="47.58196" lon="-2.8086">
        <ele>7</ele>
        <time>2025-06-21T07:44:58.000Z</time>
      </trkpt>
      <trkpt lat="47.58148" lon="-2.80903">
        <ele>9</ele>
        <time>2025-06-21T07:46:22.000Z</time>
      </trkpt>
      <trkpt lat="47.58047" lon="-2.80924">
        <ele>13</ele>
        <time>2025-06-21T07:49:00.000Z</time>
      </trkpt>
      <trkpt lat="47.57976" lon="-2.8096">
        <ele>12</ele>
        <time>2025-06-21T07:50:26.000Z</time>
      </trkpt>
      <trkpt lat="47.57972" lon="-2.81091">
        <ele>12</ele>
        <time>2025-06-21T07:52:08.000Z</time>
      </trkpt>
      <trkpt lat="47.5793" lon="-2.81125">
        <ele>9</ele>
        <time>2025-06-21T07:53:02.000Z</time>
      </trkpt>
      <trkpt lat="47.57933" lon="-2.81183">
        <ele>9</ele>
        <time>2025-06-21T07:53:47.000Z</time>
      </trkpt>
    </trkseg>
  </trk>
</gpx>